Terminal Aerodrome Forecast
Issued by NWS Grand Forks, ND

Home | Current Version | Previous Version | Graphics & Text | Print | Product List | Glossary On
Versions: 1 2 3 4 5 6 7 8 9 10 11 12 13 14 15 16 17 18
920
FTUS43 KFGF 152321
TAFFAR
TAF
KFAR 152321Z 1600/1624 34013KT P6SM OVC018
     FM160300 34008KT P6SM BKN015
     FM160600 36005KT P6SM BKN020
     FM160900 07004KT P6SM BKN020
     FM161200 12008KT P6SM BKN030
     FM161300 12010KT P6SM BKN040
     FM161500 13015G23KT P6SM BKN060
     FM162000 14022G31KT P6SM BKN130=

USA.gov is the U.S. government's official web portal to all federal, state and local government web resources and services.